Time;durP1;ratioP1;P1;durP2;ratioP2;P2;SDS_P1;SDS_P2;PMS_P1;PMS_P2;Temp;Humidity;BMP_temperature;BMP_pressure;BME280_temperature;BME280_humidity;BME280_pressure;Samples;Min_cycle;Max_cycle;Signal;HPM_P1;HPM_P2
2022/01/22 00:00:09;;;;;;;1.70;1.20;;;;;;;4.81;93.05;102996.19;5103453;27;20043;-71
2022/01/22 00:02:35;;;;;;;7.45;1.67;;;;;;;4.81;92.70;102998.78;5104285;27;20036;-73
2022/01/22 00:05:03;;;;;;;2.90;1.55;;;;;;;4.75;93.25;102992.84;5105259;27;20044;-73
2022/01/22 00:07:30;;;;;;;3.88;2.17;;;;;;;4.76;93.20;103008.44;5104511;27;20062;-72
2022/01/22 00:10:05;;;;;;;1.50;1.02;;;;;;;4.78;93.23;103006.66;5086100;27;20070;-72
2022/01/22 00:12:54;;;;;;;7.57;2.55;;;;;;;4.73;93.59;103007.66;5085396;27;20062;-73
2022/01/22 00:15:25;;;;;;;3.15;1.35;;;;;;;4.75;94.27;103006.72;5104819;27;20054;-72
2022/01/22 00:17:53;;;;;;;4.22;1.88;;;;;;;4.72;94.25;102997.28;5106679;27;20048;-73
2022/01/22 00:20:22;;;;;;;2.22;1.73;;;;;;;4.72;93.74;102986.84;5102845;27;20054;-71
2022/01/22 00:22:50;;;;;;;10.10;3.30;;;;;;;4.66;94.55;102986.94;5106155;27;20059;-73
2022/01/22 00:25:18;;;;;;;1.80;1.23;;;;;;;4.62;95.14;102983.56;5104898;27;20669;-73
2022/01/22 00:27:46;;;;;;;4.40;1.95;;;;;;;4.61;95.33;102989.66;5106332;27;20031;-74
2022/01/22 00:30:15;;;;;;;2.15;1.65;;;;;;;4.59;95.76;102993.16;5102359;27;20111;-73
2022/01/22 00:32:44;;;;;;;5.50;2.33;;;;;;;4.52;96.13;102996.78;5103953;27;20059;-72
2022/01/22 00:35:13;;;;;;;4.13;2.25;;;;;;;4.53;96.57;102998.50;5103752;27;20139;-73
2022/01/22 00:37:42;;;;;;;6.97;3.38;;;;;;;4.52;96.44;102992.41;5104649;27;20128;-72
2022/01/22 00:40:11;;;;;;;9.10;2.95;;;;;;;4.53;96.73;102993.28;5103608;27;20100;-71
2022/01/22 00:42:38;;;;;;;7.13;2.17;;;;;;;4.54;96.27;102997.63;5105423;27;20047;-72
2022/01/22 00:45:07;;;;;;;21.42;2.00;;;;;;;4.54;96.41;102997.63;5105709;27;20035;-72
2022/01/22 00:47:34;;;;;;;3.28;2.17;;;;;;;4.53;96.68;102999.34;5083413;27;20063;-71
2022/01/22 00:50:02;;;;;;;9.68;2.55;;;;;;;4.50;97.04;103004.63;5105663;27;20046;-73
2022/01/22 00:52:29;;;;;;;5.78;3.63;;;;;;;4.51;97.13;103000.25;5105992;27;20396;-74
2022/01/22 00:54:55;;;;;;;2.83;2.17;;;;;;;4.48;97.23;102995.97;5107919;27;20035;-71
2022/01/22 00:57:22;;;;;;;10.45;2.17;;;;;;;4.48;97.85;102995.97;5118217;27;20052;-72
2022/01/22 00:59:49;;;;;;;6.25;1.98;;;;;;;4.50;97.95;102996.81;5107044;27;20126;-72
2022/01/22 01:02:16;;;;;;;3.42;1.92;;;;;;;4.49;97.62;102997.69;5129072;27;20022;-73
2022/01/22 01:04:42;;;;;;;2.95;2.10;;;;;;;4.49;97.52;102989.91;5121259;27;20053;-72
2022/01/22 01:07:10;;;;;;;6.93;2.83;;;;;;;4.50;97.79;102993.34;5087606;27;20047;-72
2022/01/22 01:09:39;;;;;;;2.17;1.80;;;;;;;4.48;98.35;102985.56;5101315;27;20043;-73
2022/01/22 01:12:10;;;;;;;2.53;1.63;;;;;;;4.51;97.93;102987.25;5103083;27;20047;-74
2022/01/22 01:14:43;;;;;;;2.88;2.17;;;;;;;4.51;98.12;102989.84;5099395;27;20062;-72
2022/01/22 01:17:23;;;;;;;3.40;2.15;;;;;;;4.51;97.40;102989.84;5104045;27;20537;-71
2022/01/22 01:33:41;;;;;;;3.35;1.83;;;;;;;4.60;96.25;102984.47;5108956;27;20051;-71
2022/01/22 01:36:08;;;;;;;6.85;2.47;;;;;;;4.62;96.73;102987.91;5105282;27;20049;-73
2022/01/22 01:38:41;;;;;;;14.38;2.30;;;;;;;4.64;96.15;102987.00;5106102;27;20059;-72
2022/01/22 01:41:17;;;;;;;5.28;2.40;;;;;;;4.69;95.88;102984.31;5107299;27;20048;-74
2022/01/22 01:43:44;;;;;;;6.63;1.58;;;;;;;4.66;96.21;102980.03;5105079;27;20051;-73
2022/01/22 01:46:11;;;;;;;8.52;2.45;;;;;;;4.71;96.52;102985.13;5108325;27;20044;-71
2022/01/22 01:48:41;;;;;;;4.03;2.20;;;;;;;4.67;96.12;102973.06;5102684;27;20047;-71
2022/01/22 01:51:08;;;;;;;4.40;1.73;;;;;;;4.70;96.65;102978.22;5102028;27;20063;-73
2022/01/22 01:53:51;;;;;;;7.35;2.47;;;;;;;4.69;96.54;102973.88;5100212;27;20067;-71
2022/01/22 01:59:16;;;;;;;;;;;;;;;4.71;96.06;102977.31;5103703;27;19929;-73
2022/01/22 02:01:43;;;;;;;;;;;;;;;4.69;96.65;102984.31;5101494;27;19927;-72
2022/01/22 02:04:12;;;;;;;;;;;;;;;4.71;96.12;102983.38;5103204;27;19927;-73
2022/01/22 02:06:39;;;;;;;;;;;;;;;4.72;96.07;102983.34;5102587;27;19932;-73
2022/01/22 02:09:09;;;;;;;;;;;;;;;4.71;96.20;102988.59;5102682;27;19951;-70
2022/01/22 02:11:36;;;;;;;;;;;;;;;4.70;96.55;102986.88;5106006;27;19962;-71
2022/01/22 02:14:09;;;;;;;;;;;;;;;4.71;96.64;102992.94;5100643;27;19927;-72
2022/01/22 02:25:04;;;;;;;;;;;;;;;4.71;96.24;102991.19;5109761;28;19928;-72
2022/01/22 02:27:31;;;;;;;;;;;;;;;4.69;96.38;102990.34;5107616;28;19923;-71
2022/01/22 02:29:57;;;;;;;;;;;;;;;4.68;97.06;102990.41;5108696;28;19928;-72
2022/01/22 02:32:54;;;;;;;;;;;;;;;4.68;96.30;102993.00;5113930;28;19923;-71
2022/01/22 02:35:26;;;;;;;;;;;;;;;4.69;96.39;102984.31;5105629;28;20421;-73
2022/01/22 02:37:59;;;;;;;;;;;;;;;4.70;96.60;102984.25;5095661;28;20339;-72
2022/01/22 02:40:28;;;;;;;;;;;;;;;4.71;96.25;102985.97;5113186;28;19971;-72
2022/01/22 02:42:55;;;;;;;;;;;;;;;4.73;96.64;102982.44;5097125;28;19942;-71
2022/01/22 02:45:23;;;;;;;;;;;;;;;4.76;96.71;102982.41;5110701;28;19927;-72
2022/01/22 02:47:49;;;;;;;;;;;;;;;4.75;96.27;102980.69;5111171;28;19942;-72
2022/01/22 02:50:16;;;;;;;;;;;;;;;4.74;96.35;102978.97;5091061;28;20006;-73
2022/01/22 02:52:43;;;;;;;;;;;;;;;4.75;97.10;102969.44;5096876;28;19923;-73
2022/01/22 02:55:12;;;;;;;;;;;;;;;4.73;97.34;102977.25;5113350;28;19923;-71
2022/01/22 02:57:41;;;;;;;;;;;;;;;4.72;97.25;102975.53;5097378;28;19919;-71
2022/01/22 03:00:08;;;;;;;;;;;;;;;4.72;97.90;102979.88;5115011;28;19950;-73
2022/01/22 03:02:34;;;;;;;;;;;;;;;4.72;97.33;102985.94;5108087;28;19984;-73
2022/01/22 03:05:01;;;;;;;;;;;;;;;4.72;97.63;102989.47;5086281;28;19920;-74
2022/01/22 03:07:27;;;;;;;;;;;;;;;4.69;97.60;102984.31;5106792;28;19920;-72
2022/01/22 03:10:00;;;;;;;;;;;;;;;4.69;97.75;102984.31;5112143;27;19930;-72
2022/01/22 03:12:51;;;;;;;;;;;;;;;4.70;98.17;102988.63;5094251;27;19923;-73
2022/01/22 03:15:34;;;;;;;;;;;;;;;4.68;98.52;102977.38;5113027;27;19924;-71
2022/01/22 03:18:06;;;;;;;;;;;;;;;4.71;98.73;102982.53;5112955;27;19951;-72
2022/01/22 03:29:05;;;;;;;;;;;;;;;4.74;97.98;102980.72;5116120;27;19990;-72
2022/01/22 03:31:45;;;;;;;;;;;;;;;4.72;98.14;102970.31;5116682;27;19924;-74
2022/01/22 03:34:11;;;;;;;;;;;;;;;4.75;98.14;102980.69;5098726;28;20445;-72
2022/01/22 03:36:38;;;;;;;;;;;;;;;4.74;97.98;102973.75;5126663;27;19949;-72
2022/01/22 03:39:05;;;;;;;;;;;;;;;4.78;97.83;102988.44;5140612;27;19923;-71
2022/01/22 03:41:31;;;;;;;;;;;;;;;4.79;97.90;102987.56;5133946;27;19922;-72
2022/01/22 03:43:58;;;;;;;;;;;;;;;4.77;98.28;102997.13;5121249;27;19923;-72
2022/01/22 03:46:25;;;;;;;;;;;;;;;4.75;98.22;102985.06;5112081;27;22129;-73
2022/01/22 03:48:52;;;;;;;;;;;;;;;4.76;98.84;102992.81;5119651;27;19926;-72
2022/01/22 03:51:19;;;;;;;;;;;;;;;4.73;98.38;102997.22;5114365;27;19923;-73
2022/01/22 03:53:45;;;;;;;;;;;;;;;4.77;98.88;102997.13;5117812;27;19980;-72
2022/01/22 03:56:12;;;;;;;;;;;;;;;4.83;98.54;103004.81;5116557;27;19944;-72
2022/01/22 03:58:40;;;;;;;;;;;;;;;4.79;98.43;103002.31;5114157;27;19924;-73
2022/01/22 04:01:41;;;;;;;;;;;;;;;4.79;98.69;103003.19;5117776;27;20014;-73
2022/01/22 04:04:12;;;;;;;;;;;;;;;4.83;98.87;103003.97;5109670;27;20003;-72
2022/01/22 04:09:28;;;;;;;;;;;;;;;4.85;98.87;103008.25;5084752;27;19920;-73
2022/01/22 04:11:55;;;;;;;;;;;;;;;4.87;98.96;103010.81;5106536;27;19923;-71
2022/01/22 04:14:25;;;;;;;;;;;;;;;4.87;98.60;103003.88;5097419;27;19919;-72
2022/01/22 04:17:04;;;;;;;;;;;;;;;4.87;98.44;103003.88;5109210;27;19931;-72
2022/01/22 04:25:00;;;;;;;;;;;;;;;4.86;98.89;103004.78;5096826;27;19920;-72
2022/01/22 04:27:27;;;;;;;;;;;;;;;4.86;99.00;102998.69;5110863;27;19950;-73
2022/01/22 04:29:54;;;;;;;;;;;;;;;4.88;98.79;103000.38;5112620;27;19945;-72
2022/01/22 04:32:20;;;;;;;;;;;;;;;4.91;98.95;103005.53;5110621;27;20014;-73
2022/01/22 04:34:48;;;;;;;;;;;;;;;4.93;98.98;103005.47;5110960;27;19930;-72
2022/01/22 04:37:17;;;;;;;;;;;;;;;4.94;99.34;102996.78;5112145;27;19976;-72
2022/01/22 04:39:44;;;;;;;;;;;;;;;4.95;99.00;102988.97;5108211;27;19923;-72
2022/01/22 04:42:11;;;;;;;;;;;;;;;4.98;98.83;102988.03;5105098;27;19926;-73
2022/01/22 04:44:46;;;;;;;;;;;;;;;5.00;98.41;102981.91;5104245;27;21122;-71
2022/01/22 04:47:27;;;;;;;;;;;;;;;4.99;98.50;102985.38;5096345;27;19959;-72
2022/01/22 04:52:42;;;;;;;;;;;;;;;4.99;98.57;102979.34;5117366;27;19972;-72
2022/01/22 04:55:08;;;;;;;;;;;;;;;5.00;98.70;102979.28;5094063;27;19927;-73
2022/01/22 04:57:35;;;;;;;;;;;;;;;5.00;98.45;102984.50;5106432;27;19931;-72
2022/01/22 05:00:04;;;;;;;;;;;;;;;5.04;98.68;102987.91;5109900;27;19935;-71
2022/01/22 05:02:30;;;;;;;;;;;;;;;5.05;98.72;102989.63;5110494;27;19928;-72
2022/01/22 05:04:59;;;;;;;;;;;;;;;5.01;98.69;102978.41;5109678;27;19985;-73
2022/01/22 05:07:26;;;;;;;;;;;;;;;4.96;98.52;102980.28;5111561;27;19924;-74
2022/01/22 05:09:52;;;;;;;;;;;;;;;4.93;98.79;102982.91;5111167;27;20335;-72
2022/01/22 05:12:18;;;;;;;;;;;;;;;4.94;99.23;102984.66;5088521;27;19979;-73
2022/01/22 05:14:45;;;;;;;;;;;;;;;4.94;98.88;102981.16;5103965;27;19993;-72
2022/01/22 05:17:12;;;;;;;;;;;;;;;4.97;98.87;102984.56;5109209;27;19923;-72
2022/01/22 05:19:48;;;;;;;;;;;;;;;4.96;98.66;102977.66;5095143;28;20278;-73
2022/01/22 05:22:28;;;;;;;;;;;;;;;4.95;99.25;102978.53;5110165;27;19927;-74
2022/01/22 05:24:59;;;;;;;;;;;;;;;4.99;98.94;102980.19;5112718;27;19919;-73
2022/01/22 05:27:51;;;;;;;;;;;;;;;4.99;98.73;102980.19;5110231;27;19926;-72
2022/01/22 05:30:47;;;;;;;;;;;;;;;4.98;98.56;102983.66;5117567;27;19930;-72
2022/01/22 05:33:29;;;;;;;;;;;;;;;4.97;98.90;102981.94;5111016;27;20342;-73
2022/01/22 05:38:41;;;;;;;;;;;;;;;4.96;99.42;102988.09;5115185;27;19927;-72
2022/01/22 05:41:07;;;;;;;;;;;;;;;4.99;98.94;102984.53;5106782;27;19934;-73
2022/01/22 05:43:34;;;;;;;;;;;;;;;4.98;99.13;102982.81;5083439;27;20002;-72
2022/01/22 05:46:00;;;;;;;;;;;;;;;5.01;99.00;102983.63;5106584;27;20005;-72
2022/01/22 05:48:26;;;;;;;;;;;;;;;5.00;99.01;102987.09;5113720;27;19938;-72
2022/01/22 05:50:56;;;;;;;;;;;;;;;5.01;99.32;102987.94;5112196;27;19919;-73
2022/01/22 05:53:37;;;;;;;;;;;;;;;5.03;99.24;102994.88;5112506;27;20018;-73
2022/01/22 06:01:45;;;;;;;;;;;;;;;5.04;99.53;102996.59;5046319;28;19928;-73
2022/01/22 06:04:11;;;;;;;;;;;;;;;5.06;99.08;102997.38;5092979;27;19919;-72
2022/01/22 06:06:38;;;;;;;;;;;;;;;5.06;99.87;102997.38;5110644;27;19920;-72
2022/01/22 06:09:08;;;;;;;;;;;;;;;5.09;99.60;103001.72;5117165;27;19924;-73
2022/01/22 06:11:50;;;;;;;;;;;;;;;5.11;99.72;102992.97;5125441;27;19923;-72
2022/01/22 06:14:27;;;;;;;;;;;;;;;5.10;99.52;102999.06;5128170;27;19927;-73
2022/01/22 06:17:03;;;;;;;;;;;;;;;5.09;99.73;103007.75;5137085;27;19949;-74
2022/01/22 06:19:29;;;;;;;;;;;;;;;5.08;99.52;103010.41;5135543;27;19949;-73
2022/01/22 06:22:02;;;;;;;;;;;;;;;5.10;99.98;103014.69;5114847;27;19927;-72
2022/01/22 06:24:36;;;;;;;;;;;;;;;5.15;99.59;103012.00;5108158;28;19924;-72
2022/01/22 06:27:05;;;;;;;;;;;;;;;5.14;99.51;103012.88;5112205;28;19966;-71
2022/01/22 06:29:38;;;;;;;;;;;;;;;5.12;99.49;103010.31;5093444;28;20346;-72
2022/01/22 06:32:16;;;;;;;;;;;;;;;5.15;99.57;103005.03;5110745;28;19920;-75
2022/01/22 06:34:42;;;;;;;;;;;;;;;5.13;99.86;103004.19;5093701;28;20463;-72
2022/01/22 06:37:20;;;;;;;;;;;;;;;5.16;100.00;103008.50;5111125;28;19972;-72
2022/01/22 06:42:50;;;;;;;;;;;;;;;5.18;100.00;103012.78;5056827;28;20073;-73
2022/01/22 06:45:30;;;;;;;;;;;;;;;5.16;100.00;103022.38;5106208;27;19919;-73
2022/01/22 06:48:03;;;;;;;;;;;;;;;5.16;100.00;103022.38;5109969;27;19927;-73
2022/01/22 06:50:31;;;;;;;;;;;;;;;5.13;100.00;103027.63;5097118;27;19928;-72
2022/01/22 06:53:03;;;;;;;;;;;;;;;5.14;100.00;103034.56;5110938;27;19980;-69
2022/01/22 06:55:38;;;;;;;;;;;;;;;5.18;100.00;103032.75;5109858;27;19927;-72
2022/01/22 06:58:13;;;;;;;;;;;;;;;5.17;100.00;103036.28;5104035;27;19943;-74
2022/01/22 07:00:46;;;;;;;;;;;;;;;5.15;100.00;103035.44;5102439;27;19930;-74
2022/01/22 07:03:13;;;;;;;;;;;;;;;5.11;100.00;103029.44;5113332;27;20039;-73
2022/01/22 07:05:42;;;;;;;;;;;;;;;5.12;100.00;103049.38;5114475;27;19926;-72
2022/01/22 07:08:08;;;;;;;;;;;;;;;5.12;100.00;103046.78;5097783;27;19967;-72
2022/01/22 07:10:38;;;;;;;;;;;;;;;5.15;100.00;103048.47;5115674;27;20404;-73
2022/01/22 07:13:07;;;;;;;;;;;;;;;5.13;100.00;103060.66;5095135;27;19924;-74
2022/01/22 07:15:39;;;;;;;;;;;;;;;5.14;100.00;103060.63;5091824;27;19927;-73
2022/01/22 07:18:07;;;;;;;;;;;;;;;5.14;100.00;103068.44;5115032;27;19927;-73
2022/01/22 07:20:40;;;;;;;;;;;;;;;5.17;100.00;103070.97;5113347;27;19923;-73
2022/01/22 07:23:16;;;;;;;;;;;;;;;5.18;100.00;103070.09;5122328;27;19942;-72
2022/01/22 07:25:44;;;;;;;;;;;;;;;5.17;100.00;103068.38;5113378;27;19923;-74
2022/01/22 07:28:20;;;;;;;;;;;;;;;5.17;100.00;103065.78;5111927;27;19919;-74
2022/01/22 07:31:07;;;;;;;;;;;;;;;5.18;100.00;103074.44;5112636;27;19925;-74
2022/01/22 07:33:38;;;;;;;;;;;;;;;5.21;100.00;103075.22;5112088;27;19934;-75
2022/01/22 07:36:15;;;;;;;;;;;;;;;5.21;100.00;103070.00;5111951;27;19927;-73
2022/01/22 07:38:53;;;;;;;;;;;;;;;5.23;100.00;103073.44;5120010;27;19924;-75
2022/01/22 07:41:30;;;;;;;;;;;;;;;5.20;100.00;103083.97;5108046;27;19924;-72
2022/01/22 07:44:03;;;;;;;;;;;;;;;5.20;100.00;103083.97;5110856;27;19935;-76
2022/01/22 07:46:32;;;;;;;;;;;;;;;5.21;100.00;103090.84;5093012;27;20514;-73
2022/01/22 07:48:58;;;;;;;;;;;;;;;5.21;100.00;103088.25;5117320;27;19928;-73
2022/01/22 07:51:38;;;;;;;;;;;;;;;5.26;100.00;103094.25;5113475;27;20667;-73
2022/01/22 07:54:06;;;;;;;;;;;;;;;5.24;100.00;103090.81;5112843;27;19927;-72
2022/01/22 07:56:38;;;;;;;;;;;;;;;5.28;100.00;103086.38;5111353;27;20305;-73
2022/01/22 07:59:09;;;;;;;;;;;;;;;5.23;100.00;103081.28;5113018;27;19923;-73
2022/01/22 08:01:36;;;;;;;;;;;;;;;5.24;100.00;103080.38;5109947;27;20398;-72
2022/01/22 08:04:09;;;;;;;;;;;;;;;5.28;100.00;103082.06;5115232;27;19923;-74
2022/01/22 08:06:39;;;;;;;;;;;;;;;5.28;100.00;103084.66;5114721;27;19950;-74
2022/01/22 08:09:18;;;;;;;;;;;;;;;5.30;100.00;103084.63;5118829;27;19930;-75
2022/01/22 08:12:03;;;;;;;;;;;;;;;5.31;100.00;103079.38;5107721;27;20195;-74
2022/01/22 08:14:33;;;;;;;;;;;;;;;5.32;100.00;103078.47;5113730;27;19958;-74
2022/01/22 08:17:07;;;;;;;;;;;;;;;5.37;100.00;103066.22;5116981;27;19927;-72
2022/01/22 08:19:38;;;;;;;;;;;;;;;5.37;100.00;103075.78;5117705;27;19989;-72
2022/01/22 08:22:05;;;;;;;;;;;;;;;5.37;100.00;103073.19;5122594;27;19924;-74
2022/01/22 08:24:32;;;;;;;;;;;;;;;5.39;100.00;103069.63;5113071;27;19950;-72
2022/01/22 08:27:14;;;;;;;;;;;;;;;5.41;100.00;103073.06;5100554;27;20541;-73
2022/01/22 08:29:43;;;;;;;;;;;;;;;5.45;100.00;103073.88;5108643;27;19919;-73
2022/01/22 08:32:35;;;;;;;;;;;;;;;5.47;100.00;103078.16;5116675;27;19976;-74
2022/01/22 08:38:01;;;;;;;;;;;;;;;5.57;100.00;103083.16;5110568;27;20446;-74
2022/01/22 08:40:33;;;;;;;;;;;;;;;5.63;100.00;103084.75;5112578;27;19923;-75
2022/01/22 08:42:59;;;;;;;;;;;;;;;5.64;100.00;103089.97;5118126;27;19926;-74
2022/01/22 08:45:27;;;;;;;;;;;;;;;5.73;100.00;103086.28;5113281;27;19923;-73
2022/01/22 08:47:55;;;;;;;;;;;;;;;5.75;100.00;103090.56;5118247;27;20022;-73
2022/01/22 08:50:23;;;;;;;;;;;;;;;5.81;100.00;103089.59;5123392;27;20194;-72
2022/01/22 08:52:52;;;;;;;;;;;;;;;5.90;99.84;103092.00;5124296;27;19943;-73
2022/01/22 08:55:21;;;;;;;;;;;;;;;6.02;99.56;103086.53;5134946;27;19923;-72
2022/01/22 08:57:49;;;;;;;;;;;;;;;6.20;99.62;103080.84;5121711;27;20034;-72
2022/01/22 09:00:16;;;;;;;;;;;;;;;6.48;99.17;103091.44;5111298;27;19959;-75
2022/01/22 09:02:51;;;;;;;;;;;;;;;6.46;98.03;103094.97;5115248;27;19923;-73
2022/01/22 09:05:35;;;;;;;;;;;;;;;6.50;97.83;103094.88;5109744;27;19931;-74
2022/01/22 09:08:03;;;;;;;;;;;;;;;6.61;98.05;103095.44;5114519;27;20305;-74
2022/01/22 09:10:34;;;;;;;;;;;;;;;6.65;97.21;103094.47;5090326;28;19931;-74
2022/01/22 09:13:01;;;;;;;;;;;;;;;6.62;96.99;103111.97;5114462;27;20297;-74
2022/01/22 09:15:30;;;;;;;;;;;;;;;6.66;96.94;103106.63;5110532;27;19920;-73
2022/01/22 09:18:01;;;;;;;;;;;;;;;6.55;96.82;103110.44;5109577;27;19928;-74
2022/01/22 09:21:02;;;;;;;;;;;;;;;6.48;96.80;103112.31;5117408;27;19959;-75
2022/01/22 09:23:28;;;;;;;;;;;;;;;6.26;97.00;103109.41;5113034;27;19929;-74
2022/01/22 09:25:55;;;;;;;;;;;;;;;6.13;97.77;103116.69;5097248;27;19926;-75
2022/01/22 09:28:22;;;;;;;;;;;;;;;6.06;98.43;103116.84;5108259;27;20002;-75
2022/01/22 09:30:55;;;;;;;;;;;;;;;6.03;98.67;103109.09;5115524;27;20012;-73
2022/01/22 09:33:33;;;;;;;;;;;;;;;5.99;98.92;103123.09;5111062;27;19928;-74
2022/01/22 09:36:04;;;;;;;;;;;;;;;6.00;99.03;103112.63;5112865;27;19925;-72
2022/01/22 09:38:30;;;;;;;;;;;;;;;6.04;98.94;103116.00;5092373;27;19926;-72
2022/01/22 09:40:57;;;;;;;;;;;;;;;6.08;99.23;103115.91;5107338;27;20290;-72
2022/01/22 09:43:27;;;;;;;;;;;;;;;6.06;99.02;103120.34;5109165;27;19923;-75
2022/01/22 09:46:05;;;;;;;;;;;;;;;6.13;98.80;103128.84;5090082;27;19928;-74
2022/01/22 09:48:39;;;;;;;;;;;;;;;6.14;98.59;103134.06;5114713;27;19919;-73
2022/01/22 09:51:16;;;;;;;;;;;;;;;6.12;98.67;103137.56;5107617;27;20018;-73
2022/01/22 09:53:43;;;;;;;;;;;;;;;6.13;98.77;103142.78;5115116;27;20004;-72
2022/01/22 09:56:12;;;;;;;;;;;;;;;6.12;98.74;103143.66;5114708;27;19963;-72
2022/01/22 09:58:41;;;;;;;;;;;;;;;6.15;98.73;103138.38;5097929;28;19923;-72
2022/01/22 10:01:18;;;;;;;;;;;;;;;6.18;98.50;103143.50;5115727;27;19930;-71
2022/01/22 10:03:57;;;;;;;;;;;;;;;6.18;98.35;103142.66;5093346;27;20060;-73
2022/01/22 10:06:26;;;;;;;;;;;;;;;6.20;98.37;103140.84;5113884;27;19924;-73
2022/01/22 10:09:09;;;;;;;;;;;;;;;6.26;98.36;103135.53;5108646;27;19931;-73
2022/01/22 10:11:36;;;;;;;;;;;;;;;6.34;98.33;103141.41;5112789;27;19985;-72
2022/01/22 10:14:21;;;;;;;;;;;;;;;6.36;97.80;103137.03;5106176;27;20448;-73
2022/01/22 10:16:49;;;;;;;;;;;;;;;6.34;97.70;103128.38;5100224;27;20019;-72
2022/01/22 10:19:17;;;;;;;;;;;;;;;6.39;97.81;103133.44;5115005;27;19972;-75
2022/01/22 10:22:04;;;;;;;;;;;;;;;6.48;97.28;103130.59;5109939;27;19923;-74
2022/01/22 10:24:40;;;;;;;;;;;;;;;6.52;97.05;103127.03;5108294;28;19957;-72
2022/01/22 10:27:19;;;;;;;;;;;;;;;6.64;96.97;103136.31;5091421;28;19959;-73
2022/01/22 10:29:54;;;;;;;;;;;;;;;6.62;96.69;103136.31;5114240;28;19923;-73
2022/01/22 10:32:36;;;;;;;;;;;;;;;6.73;97.01;103138.69;5115127;28;19953;-72
2022/01/22 10:35:23;;;;;;;;;;;;;;;6.82;96.32;103131.47;5109731;28;19934;-74
2022/01/22 10:37:55;;;;;;;;;;;;;;;6.81;95.75;103131.53;5088817;28;19924;-75
2022/01/22 10:40:27;;;;;;;;;;;;;;;6.82;95.33;103135.81;5108082;28;19926;-71
2022/01/22 10:43:16;;;;;;;;;;;;;;;6.95;95.77;103145.91;5092936;28;19931;-78
2022/01/22 10:45:43;;;;;;;;;;;;;;;6.99;94.88;103142.34;5112853;28;19931;-73
2022/01/22 10:48:13;;;;;;;;;;;;;;;7.06;94.78;103138.66;5112018;28;20333;-74
2022/01/22 10:50:39;;;;;;;;;;;;;;;7.01;94.64;103135.31;5117940;28;19926;-74
2022/01/22 10:53:34;;;;;;;;;;;;;;;6.98;94.90;103138.00;5109156;28;19995;-73
2022/01/22 10:56:05;;;;;;;;;;;;;;;7.05;95.21;103136.09;5108478;28;20010;-72
2022/01/22 10:58:48;;;;;;;;;;;;;;;7.05;94.86;103139.56;5109177;28;20014;-73
2022/01/22 11:01:24;;;;;;;;;;;;;;;7.08;94.98;103139.47;5111316;28;19931;-72
2022/01/22 11:04:02;;;;;;;;;;;;;;;6.98;94.88;103145.84;5113843;28;19927;-72
2022/01/22 11:06:34;;;;;;;;;;;;;;;7.05;94.98;103147.38;5094210;28;20241;-72
2022/01/22 11:09:03;;;;;;;;;;;;;;;6.96;94.83;103137.19;5115204;28;20006;-71
2022/01/22 11:11:40;;;;;;;;;;;;;;;7.00;95.13;103149.28;5110299;28;20392;-72
2022/01/22 11:14:12;;;;;;;;;;;;;;;6.95;95.04;103140.69;5107046;28;20446;-72
2022/01/22 11:16:39;;;;;;;;;;;;;;;6.95;94.66;103130.22;5112427;28;19923;-72
2022/01/22 11:19:22;;;;;;;;;;;;;;;6.99;95.32;103134.50;5113247;28;19946;-72
2022/01/22 11:22:02;;;;;;;;;;;;;;;7.02;94.87;103130.94;5108757;28;19923;-72
2022/01/22 11:24:31;;;;;;;;;;;;;;;7.06;94.52;103130.81;5094279;28;19919;-73
2022/01/22 11:27:01;;;;;;;;;;;;;;;7.11;95.18;103120.25;5111756;28;19919;-72
2022/01/22 11:29:34;;;;;;;;;;;;;;;7.12;95.02;103128.03;5125771;28;19920;-73
2022/01/22 11:32:20;;;;;;;;;;;;;;;7.08;94.12;103126.41;5140123;27;19915;-73
2022/01/22 11:34:51;;;;;;;;;;;;;;;7.03;94.25;103125.66;5136705;27;19921;-73
2022/01/22 11:37:23;;;;;;;;;;;;;;;7.06;94.72;103128.19;5122119;27;19935;-72
2022/01/22 11:40:06;;;;;;;;;;;;;;;7.03;94.50;103127.44;5093698;27;20111;-73
2022/01/22 11:42:56;;;;;;;;;;;;;;;7.02;94.30;103125.72;5118848;27;19930;-73
2022/01/22 11:45:29;;;;;;;;;;;;;;;6.97;94.18;103127.59;5110953;27;19964;-71
2022/01/22 11:48:16;;;;;;;;;;;;;;;6.92;94.63;103130.34;5119846;27;20050;-72
2022/01/22 11:50:54;;;;;;;;;;;;;;;6.88;94.98;103133.91;5093065;27;19947;-72
2022/01/22 11:53:22;;;;;;;;;;;;;;;6.92;94.85;103121.63;5109309;27;19919;-72
2022/01/22 11:56:24;;;;;;;;;;;;;;;6.99;95.22;103124.03;5113805;27;19924;-72
2022/01/22 11:59:10;;;;;;;;;;;;;;;7.00;95.14;103120.53;5109269;27;19923;-74
2022/01/22 12:01:54;;;;;;;;;;;;;;;6.97;95.12;103117.16;5114781;27;20381;-72
2022/01/22 12:04:22;;;;;;;;;;;;;;;6.94;95.20;103114.59;5101720;27;19950;-71
2022/01/22 12:07:11;;;;;;;;;;;;;;;7.00;95.51;103127.50;5110739;27;19920;-69
2022/01/22 12:09:43;;;;;;;;;;;;;;;6.94;95.01;103122.44;5116110;27;19923;-71
2022/01/22 12:15:17;;;;;;;;;;;;;;;6.94;95.87;103122.44;5094255;27;20014;-73
2022/01/22 12:17:58;;;;;;;;;;;;;;;6.94;96.17;103128.50;5111448;27;19951;-71
2022/01/22 12:23:39;;;;;;;;;;;;;;;6.95;96.18;103104.09;5066283;27;20633;-74
2022/01/22 12:26:08;;;;;;;;;;;;;;;6.94;96.52;103110.22;5117429;27;19920;-71
2022/01/22 12:28:35;;;;;;;;;;;;;;;6.94;96.77;103112.84;5112208;27;19931;-70
2022/01/22 12:31:02;;;;;;;;;;;;;;;6.94;97.25;103112.84;5119778;27;19920;-70
2022/01/22 12:33:44;;;;;;;;;;;;;;;6.92;97.27;103108.56;5113728;27;19923;-72
2022/01/22 12:36:17;;;;;;;;;;;;;;;6.90;97.39;103116.44;5112336;27;19920;-73
2022/01/22 12:38:47;;;;;;;;;;;;;;;6.93;97.47;103112.88;5113126;27;19919;-73
2022/01/22 12:41:27;;;;;;;;;;;;;;;6.88;97.54;103117.38;5096942;27;19980;-73
2022/01/22 12:44:01;;;;;;;;;;;;;;;6.91;97.61;103114.69;5118950;27;19930;-72
2022/01/22 12:46:28;;;;;;;;;;;;;;;6.92;97.82;103106.81;5115140;27;20369;-73
2022/01/22 12:48:54;;;;;;;;;;;;;;;6.90;97.94;103107.72;5107046;27;19988;-72
2022/01/22 12:51:24;;;;;;;;;;;;;;;6.86;97.51;103116.56;5089984;27;20048;-73
2022/01/22 12:53:51;;;;;;;;;;;;;;;6.90;98.21;103112.97;5112593;27;19927;-75
2022/01/22 12:56:51;;;;;;;;;;;;;;;6.89;97.86;103113.88;5091653;27;20166;-73
2022/01/22 12:59:20;;;;;;;;;;;;;;;6.91;98.02;103110.31;5106524;27;19926;-73
2022/01/22 13:01:51;;;;;;;;;;;;;;;6.98;97.85;103108.38;5106535;27;20232;-74
2022/01/22 13:04:20;;;;;;;;;;;;;;;6.98;97.06;103114.47;5110472;27;19923;-73
2022/01/22 13:06:51;;;;;;;;;;;;;;;6.96;97.14;103100.59;5117949;27;20164;-74
2022/01/22 13:09:18;;;;;;;;;;;;;;;7.01;97.35;103111.81;5112901;27;20276;-73
2022/01/22 13:11:47;;;;;;;;;;;;;;;6.97;97.06;103112.78;5107992;27;20960;-73
2022/01/22 13:14:14;;;;;;;;;;;;;;;6.94;96.96;103122.44;5109402;27;19924;-74
2022/01/22 13:16:48;;;;;;;;;;;;;;;6.97;97.31;103119.75;5114651;27;19927;-73
2022/01/22 13:19:14;;;;;;;;;;;;;;;6.97;97.33;103118.00;5094056;27;19927;-73
2022/01/22 13:21:48;;;;;;;;;;;;;;;6.98;97.15;103109.25;5111596;27;19920;-73
2022/01/22 13:24:15;;;;;;;;;;;;;;;6.96;97.35;103118.03;5116643;27;19964;-74
2022/01/22 13:26:44;;;;;;;;;;;;;;;6.93;97.41;103113.75;5093400;28;19930;-73
2022/01/22 13:29:17;;;;;;;;;;;;;;;6.90;97.39;103110.34;5110905;27;20014;-73
2022/01/22 13:32:00;;;;;;;;;;;;;;;6.88;97.25;103113.00;5112557;27;19969;-73
2022/01/22 13:34:40;;;;;;;;;;;;;;;6.84;97.66;103114.00;5090783;27;19929;-74
2022/01/22 13:40:28;;;;;;;;;;;;;;;6.80;98.24;103120.19;5118523;27;19962;-72
2022/01/22 13:48:38;;;;;;;;;;;;;;;6.73;98.78;103123.03;5097358;27;19926;-73
2022/01/22 13:51:08;;;;;;;;;;;;;;;6.73;98.79;103113.41;5113802;27;19960;-71
2022/01/22 13:53:34;;;;;;;;;;;;;;;6.75;98.48;103115.97;5099514;27;20460;-69
2022/01/22 13:56:05;;;;;;;;;;;;;;;6.74;98.73;103115.13;5112050;27;19934;-71
2022/01/22 13:58:31;;;;;;;;;;;;;;;6.75;98.64;103121.19;5107471;27;19963;-71
2022/01/22 14:01:04;;;;;;;;;;;;;;;6.76;98.67;103118.56;5105375;27;19978;-72
2022/01/22 14:03:37;;;;;;;;;;;;;;;6.79;98.60;103112.41;5089549;27;19959;-73
2022/01/22 14:06:06;;;;;;;;;;;;;;;6.82;98.69;103118.41;5115047;27;20037;-73
2022/01/22 14:08:34;;;;;;;;;;;;;;;6.82;98.38;103118.41;5127444;27;19920;-73
2022/01/22 14:11:06;;;;;;;;;;;;;;;6.85;98.26;103117.47;5106524;28;19907;-75